Time;durP1;ratioP1;P1;durP2;ratioP2;P2;SDS_P1;SDS_P2;PMS_P1;PMS_P2;Temp;Humidity;BMP_temperature;BMP_pressure;BME280_temperature;BME280_humidity;BME280_pressure;Samples;Min_cycle;Max_cycle;Signal;HPM_P1;HPM_P2
2021/05/15 00:02:10;;;;;;;5.80;3.60;;;12.00;82.10;;;;;;5092838;28;20480;-75
2021/05/15 00:04:35;;;;;;;5.97;3.47;;;12.00;81.90;;;;;;5082884;28;20020;-75
2021/05/15 00:07:01;;;;;;;4.07;3.42;;;11.90;81.80;;;;;;5092422;28;20031;-75
2021/05/15 00:09:26;;;;;;;4.13;3.13;;;11.90;82.00;;;;;;5091937;28;20032;-75
2021/05/15 00:11:52;;;;;;;4.68;3.53;;;11.80;82.10;;;;;;5090897;28;20392;-75
2021/05/15 00:14:18;;;;;;;3.50;3.17;;;11.80;82.20;;;;;;5092753;28;20045;-75
2021/05/15 00:16:43;;;;;;;4.22;3.33;;;11.70;82.40;;;;;;5078081;28;20036;-74
2021/05/15 00:19:09;;;;;;;6.32;3.85;;;11.70;82.50;;;;;;5084871;28;20040;-75
2021/05/15 00:21:35;;;;;;;5.18;3.88;;;11.70;82.60;;;;;;5074199;28;20477;-75
2021/05/15 00:24:01;;;;;;;6.82;3.90;;;11.70;82.80;;;;;;5074404;28;20476;-75
2021/05/15 00:26:27;;;;;;;5.65;3.70;;;11.70;82.80;;;;;;5080827;28;20032;-74
2021/05/15 00:28:53;;;;;;;4.57;3.75;;;11.80;82.90;;;;;;5078090;28;20037;-75
2021/05/15 00:31:19;;;;;;;4.80;3.72;;;11.80;82.90;;;;;;5061323;28;20424;-74
2021/05/15 00:33:45;;;;;;;6.47;4.28;;;11.80;82.90;;;;;;5071264;28;20485;-74
2021/05/15 00:36:10;;;;;;;8.20;4.47;;;11.80;82.90;;;;;;5074025;28;20040;-75
2021/05/15 00:38:36;;;;;;;7.38;4.40;;;11.80;82.90;;;;;;5060034;28;20039;-75
2021/05/15 00:41:02;;;;;;;6.40;4.60;;;11.80;82.70;;;;;;5065409;28;20436;-74
2021/05/15 00:43:28;;;;;;;6.38;4.22;;;11.80;82.80;;;;;;5071799;28;20035;-74
2021/05/15 00:45:54;;;;;;;6.70;4.35;;;11.70;82.70;;;;;;5075315;28;20476;-74
2021/05/15 00:48:20;;;;;;;6.60;3.92;;;11.80;82.80;;;;;;5096554;28;20055;-75
2021/05/15 00:50:45;;;;;;;5.35;3.67;;;11.70;82.80;;;;;;5078428;28;20028;-75
2021/05/15 00:53:11;;;;;;;5.45;3.78;;;11.80;82.90;;;;;;5074136;28;20040;-75
2021/05/15 00:55:36;;;;;;;5.50;4.28;;;11.70;82.90;;;;;;5070838;28;20457;-75
2021/05/15 00:58:03;;;;;;;5.22;3.83;;;11.70;83.60;;;;;;5076127;28;20031;-75
2021/05/15 01:00:30;;;;;;;5.65;3.85;;;11.70;83.10;;;;;;5075554;28;20073;-75
2021/05/15 01:02:55;;;;;;;5.18;3.85;;;11.70;83.20;;;;;;5075974;28;20017;-75
2021/05/15 01:05:21;;;;;;;6.20;4.50;;;11.70;83.30;;;;;;5069900;28;20393;-75
2021/05/15 01:07:48;;;;;;;4.72;4.32;;;11.70;83.40;;;;;;5058165;28;20032;-75
2021/05/15 01:10:15;;;;;;;5.15;4.47;;;11.70;83.50;;;;;;5074670;28;20534;-75
2021/05/15 01:12:50;;;;;;;4.20;3.72;;;11.70;83.50;;;;;;5075537;28;20107;-75
2021/05/15 01:15:16;;;;;;;4.68;3.85;;;11.70;83.70;;;;;;5075574;28;20028;-75
2021/05/15 01:18:02;;;;;;;4.93;3.88;;;11.70;83.70;;;;;;5073489;28;20039;-75
2021/05/15 01:20:31;;;;;;;4.97;4.13;;;11.70;84.00;;;;;;5075458;28;20112;-75
2021/05/15 01:22:58;;;;;;;6.53;5.10;;;11.70;83.90;;;;;;5073041;28;20025;-74
2021/05/15 01:25:24;;;;;;;6.47;4.47;;;11.70;84.60;;;;;;5070885;28;20051;-75
2021/05/15 01:27:49;;;;;;;4.85;4.30;;;11.70;84.10;;;;;;5076341;28;20036;-75
2021/05/15 01:30:16;;;;;;;6.75;4.60;;;11.70;84.20;;;;;;5074489;28;20362;-74
2021/05/15 01:32:43;;;;;;;6.00;5.38;;;11.70;84.30;;;;;;5063354;28;20055;-74
2021/05/15 01:35:10;;;;;;;5.80;4.50;;;11.70;84.30;;;;;;5075287;28;20032;-74
2021/05/15 01:37:36;;;;;;;7.00;4.75;;;11.80;84.40;;;;;;5073244;28;20114;-74
2021/05/15 01:40:05;;;;;;;5.20;4.70;;;11.80;84.30;;;;;;5072837;28;20028;-75
2021/05/15 01:42:31;;;;;;;7.05;4.22;;;11.80;84.40;;;;;;5056727;28;20013;-75
2021/05/15 01:44:58;;;;;;;5.60;4.55;;;11.80;84.50;;;;;;5073945;28;20028;-75
2021/05/15 01:47:25;;;;;;;5.93;4.97;;;11.80;84.40;;;;;;5075070;28;20053;-75
2021/05/15 01:49:50;;;;;;;6.07;3.95;;;11.80;84.40;;;;;;5074516;28;20052;-74
2021/05/15 01:52:16;;;;;;;5.90;4.00;;;11.90;84.70;;;;;;5073241;28;20485;-74
2021/05/15 01:54:42;;;;;;;8.00;4.60;;;11.90;84.80;;;;;;5074361;28;20060;-74
2021/05/15 01:57:08;;;;;;;5.97;4.75;;;11.90;85.00;;;;;;5058844;28;20031;-74
2021/05/15 01:59:34;;;;;;;5.43;4.85;;;11.90;85.00;;;;;;5074959;28;20056;-74
2021/05/15 02:01:59;;;;;;;6.50;5.20;;;11.90;85.10;;;;;;5059501;28;20075;-74
2021/05/15 02:04:25;;;;;;;4.70;4.03;;;11.90;85.30;;;;;;5075141;28;20024;-75
2021/05/15 02:06:51;;;;;;;5.15;4.30;;;12.00;85.50;;;;;;5071160;28;20185;-75
2021/05/15 02:09:16;;;;;;;7.88;4.90;;;12.00;85.60;;;;;;5068446;28;20037;-75
2021/05/15 02:11:42;;;;;;;8.30;4.88;;;12.00;85.50;;;;;;5053927;28;20367;-75
2021/05/15 02:14:07;;;;;;;6.28;4.35;;;12.00;85.60;;;;;;5068754;28;20106;-75
2021/05/15 02:16:33;;;;;;;5.70;5.15;;;12.00;85.60;;;;;;5054778;28;20029;-75
2021/05/15 02:18:59;;;;;;;5.97;4.70;;;12.00;85.50;;;;;;5072979;28;20031;-75
2021/05/15 02:21:25;;;;;;;5.85;4.78;;;11.90;85.40;;;;;;5074844;28;20096;-75
2021/05/15 02:23:50;;;;;;;5.50;5.00;;;11.90;85.30;;;;;;5072405;28;20033;-75
2021/05/15 02:26:16;;;;;;;7.55;5.00;;;11.90;85.30;;;;;;5071853;28;20381;-75
2021/05/15 02:28:42;;;;;;;5.38;4.78;;;11.90;85.50;;;;;;5072529;28;20493;-75
2021/05/15 02:31:07;;;;;;;8.52;5.25;;;11.90;85.60;;;;;;5073580;28;20029;-75
2021/05/15 02:33:33;;;;;;;9.27;5.10;;;11.80;85.70;;;;;;5073811;28;20033;-75
2021/05/15 02:35:58;;;;;;;6.07;5.57;;;11.80;85.80;;;;;;5053482;28;20033;-75
2021/05/15 02:38:24;;;;;;;5.93;5.32;;;11.80;85.90;;;;;;5066447;28;20542;-75
2021/05/15 02:40:53;;;;;;;6.95;5.60;;;11.70;85.80;;;;;;5074185;28;20036;-75
2021/05/15 02:43:19;;;;;;;;;;;11.70;85.80;;;;;;5073376;28;20029;-75
2021/05/15 02:45:44;;;;;;;7.35;5.18;;;11.70;85.70;;;;;;5074274;28;19927;-75
2021/05/15 02:48:10;;;;;;;8.02;6.28;;;11.60;85.90;;;;;;5072145;28;20029;-75
2021/05/15 02:50:36;;;;;;;7.07;5.82;;;11.60;86.00;;;;;;5073991;28;20028;-75
2021/05/15 02:53:02;;;;;;;6.85;6.00;;;11.50;86.00;;;;;;5083650;28;20046;-75
2021/05/15 02:55:28;;;;;;;6.93;5.80;;;11.50;85.90;;;;;;5076201;28;20032;-75
2021/05/15 02:57:54;;;;;;;9.05;5.75;;;11.40;85.90;;;;;;5088250;28;20101;-75
2021/05/15 03:00:23;;;;;;;8.75;6.18;;;11.40;85.90;;;;;;5084692;28;20055;-75
2021/05/15 03:02:48;;;;;;;;;;;11.40;86.00;;;;;;5074828;28;20023;-75
2021/05/15 03:05:16;;;;;;;6.32;5.68;;;11.30;85.80;;;;;;5093173;28;19908;-75
2021/05/15 03:07:42;;;;;;;6.40;5.80;;;11.30;86.20;;;;;;5092876;28;20031;-75
2021/05/15 03:10:09;;;;;;;6.53;5.93;;;11.30;86.10;;;;;;5093547;28;20032;-75
2021/05/15 03:12:36;;;;;;;6.55;5.38;;;11.30;86.20;;;;;;5087135;28;20028;-75
2021/05/15 03:15:04;;;;;;;6.60;5.53;;;11.30;86.30;;;;;;5059020;28;20051;-75
2021/05/15 03:17:30;;;;;;;7.00;6.30;;;11.30;86.40;;;;;;5095430;28;20477;-75
2021/05/15 03:19:55;;;;;;;5.90;5.07;;;11.30;86.40;;;;;;5066502;28;20039;-75
2021/05/15 03:22:22;;;;;;;6.03;5.20;;;11.30;86.60;;;;;;5084676;28;20388;-75
2021/05/15 03:24:48;;;;;;;7.40;6.30;;;11.30;86.70;;;;;;5093064;28;20024;-75
2021/05/15 03:27:14;;;;;;;7.57;6.30;;;11.30;86.80;;;;;;5090247;28;20043;-75
2021/05/15 03:29:41;;;;;;;8.20;7.13;;;11.30;87.00;;;;;;5092505;28;20040;-75
2021/05/15 03:32:07;;;;;;;11.27;8.82;;;11.40;87.10;;;;;;5067297;28;20181;-75
2021/05/15 03:34:33;;;;;;;14.65;9.57;;;11.40;87.20;;;;;;5086182;28;20024;-75
2021/05/15 03:36:59;;;;;;;12.48;9.15;;;11.40;87.30;;;;;;5055458;28;20141;-75
2021/05/15 03:39:24;;;;;;;19.15;12.70;;;11.50;87.40;;;;;;5085322;28;20481;-75
2021/05/15 03:41:50;;;;;;;15.50;11.00;;;11.50;87.40;;;;;;5075071;28;20047;-75
2021/05/15 03:44:15;;;;;;;16.83;11.70;;;11.50;87.40;;;;;;5068628;28;20036;-75
2021/05/15 03:46:41;;;;;;;21.33;15.02;;;11.60;87.40;;;;;;5073973;28;20480;-74
2021/05/15 03:49:07;;;;;;;30.02;18.77;;;11.60;87.20;;;;;;5074663;28;20093;-74
2021/05/15 03:51:34;;;;;;;26.15;17.08;;;11.60;87.40;;;;;;5092033;28;20024;-75
2021/05/15 03:53:59;;;;;;;24.05;16.23;;;11.60;87.60;;;;;;5090910;28;20044;-75
2021/05/15 03:56:25;;;;;;;25.10;17.35;;;11.60;87.60;;;;;;5072013;28;20033;-75
2021/05/15 03:58:52;;;;;;;31.85;20.35;;;11.60;87.60;;;;;;5075341;28;20028;-75
2021/05/15 04:01:18;;;;;;;37.65;23.88;;;11.70;87.90;;;;;;5091587;28;20028;-75
2021/05/15 04:03:43;;;;;;;44.50;26.20;;;11.70;88.10;;;;;;5090741;28;20035;-75
2021/05/15 04:06:09;;;;;;;44.22;26.77;;;11.70;88.00;;;;;;5092516;28;20392;-75
2021/05/15 04:08:35;;;;;;;50.95;28.70;;;11.70;88.20;;;;;;5091961;28;20040;-75
2021/05/15 04:11:00;;;;;;;43.17;26.33;;;11.70;88.30;;;;;;5057337;28;20032;-75
2021/05/15 04:13:34;;;;;;;46.70;28.75;;;11.80;88.30;;;;;;5087100;28;20056;-75
2021/05/15 04:16:09;;;;;;;50.42;29.52;;;11.70;88.30;;;;;;5089920;28;20107;-75
2021/05/15 04:18:34;;;;;;;48.10;28.98;;;11.70;88.40;;;;;;5091140;28;20024;-75
2021/05/15 04:21:01;;;;;;;55.13;30.50;;;11.70;88.40;;;;;;5086237;28;20016;-75
2021/05/15 04:23:27;;;;;;;49.00;28.73;;;11.80;88.60;;;;;;5090480;28;20488;-75
2021/05/15 04:25:54;;;;;;;57.80;30.88;;;11.70;88.50;;;;;;5073855;28;20043;-75
2021/05/15 04:28:20;;;;;;;55.38;32.00;;;11.80;88.50;;;;;;5074834;28;20035;-75
2021/05/15 04:30:47;;;;;;;53.63;31.55;;;11.80;88.60;;;;;;5090775;28;20361;-75
2021/05/15 04:33:13;;;;;;;56.58;31.95;;;11.80;88.50;;;;;;5092708;28;20496;-75
2021/05/15 04:35:38;;;;;;;51.03;30.45;;;11.80;88.50;;;;;;5071637;28;20110;-75
2021/05/15 04:38:05;;;;;;;55.58;32.03;;;11.90;88.60;;;;;;5073086;28;20085;-75
2021/05/15 04:40:32;;;;;;;60.47;33.95;;;11.90;88.60;;;;;;5092200;28;20430;-75
2021/05/15 04:42:58;;;;;;;58.70;32.00;;;11.90;88.60;;;;;;5097761;28;20099;-75
2021/05/15 04:45:24;;;;;;;61.05;33.67;;;11.90;88.40;;;;;;5104498;28;20099;-76
2021/05/15 04:47:49;;;;;;;57.42;33.25;;;11.90;88.20;;;;;;5078580;28;20390;-75
2021/05/15 04:50:15;;;;;;;58.00;32.13;;;11.90;88.10;;;;;;5073969;28;20039;-75
2021/05/15 04:52:41;;;;;;;58.03;32.85;;;12.00;88.30;;;;;;5074031;28;20502;-75
2021/05/15 04:55:07;;;;;;;63.90;35.58;;;11.90;88.40;;;;;;5074358;28;20036;-75
2021/05/15 04:57:33;;;;;;;58.53;33.75;;;12.00;88.50;;;;;;5092556;28;20073;-75
2021/05/15 04:59:59;;;;;;;63.47;35.08;;;11.90;88.40;;;;;;5091626;28;20036;-75
2021/05/15 05:02:24;;;;;;;69.80;37.30;;;11.90;88.40;;;;;;5075290;28;20035;-75
2021/05/15 05:04:50;;;;;;;74.45;37.03;;;12.00;88.40;;;;;;5074462;28;20532;-75
2021/05/15 05:07:16;;;;;;;64.93;35.58;;;12.00;88.50;;;;;;5074488;28;20028;-75
2021/05/15 05:09:41;;;;;;;74.22;41.38;;;12.00;88.60;;;;;;5082271;28;20017;-75
2021/05/15 05:12:08;;;;;;;63.30;36.15;;;12.00;88.50;;;;;;5094392;28;20116;-75
2021/05/15 05:14:35;;;;;;;72.30;37.72;;;12.00;88.40;;;;;;5046068;28;20032;-75
2021/05/15 05:17:01;;;;;;;73.63;39.38;;;12.00;88.40;;;;;;5062521;28;20021;-75
2021/05/15 05:19:28;;;;;;;76.25;39.80;;;12.00;88.40;;;;;;5055714;28;20077;-75
2021/05/15 05:21:55;;;;;;;80.43;40.38;;;12.00;88.50;;;;;;5077485;28;20033;-75
2021/05/15 05:24:21;;;;;;;80.93;40.40;;;12.10;88.60;;;;;;5055685;28;20024;-75
2021/05/15 05:26:46;;;;;;;75.00;38.47;;;12.00;88.60;;;;;;5082812;28;20037;-75
2021/05/15 05:29:12;;;;;;;80.13;40.22;;;12.10;88.70;;;;;;5063178;28;20432;-75
2021/05/15 05:31:44;;;;;;;84.25;40.17;;;12.10;88.60;;;;;;5090834;28;20082;-75
2021/05/15 05:34:11;;;;;;;76.10;38.40;;;12.10;88.80;;;;;;5097562;28;20028;-75
2021/05/15 05:36:38;;;;;;;83.15;39.88;;;12.10;88.70;;;;;;5088778;28;20481;-75
2021/05/15 05:39:10;;;;;;;84.03;39.88;;;12.10;88.60;;;;;;5090297;28;20434;-75
2021/05/15 05:41:36;;;;;;;80.32;38.97;;;12.10;88.70;;;;;;5088717;28;20073;-75
2021/05/15 05:44:02;;;;;;;80.63;39.60;;;12.10;88.60;;;;;;5077270;28;20024;-75
2021/05/15 05:46:28;;;;;;;81.90;39.70;;;12.10;88.70;;;;;;5094184;28;20032;-75
2021/05/15 05:48:53;;;;;;;80.32;38.58;;;12.10;88.70;;;;;;5077125;28;20054;-75
2021/05/15 05:51:19;;;;;;;84.22;40.25;;;12.10;88.60;;;;;;5075445;28;20101;-75
2021/05/15 05:53:44;;;;;;;78.70;39.90;;;12.10;88.70;;;;;;5094595;28;20044;-75
2021/05/15 05:56:10;;;;;;;86.32;41.22;;;12.20;88.70;;;;;;5053109;28;20424;-75
2021/05/15 05:58:36;;;;;;;84.32;39.85;;;12.20;88.60;;;;;;5089496;28;20032;-75
2021/05/15 06:01:01;;;;;;;74.18;36.65;;;12.20;88.60;;;;;;5095120;28;20355;-75
2021/05/15 06:03:27;;;;;;;76.28;37.65;;;12.20;88.50;;;;;;5076141;28;20020;-75
2021/05/15 06:05:53;;;;;;;92.40;41.30;;;12.30;88.60;;;;;;5083303;28;20078;-75
2021/05/15 06:08:19;;;;;;;76.07;39.08;;;12.20;88.60;;;;;;5082163;28;20393;-75
2021/05/15 06:10:47;;;;;;;72.82;38.00;;;12.30;88.70;;;;;;5067313;28;20388;-75
2021/05/15 06:13:14;;;;;;;83.80;39.08;;;12.30;88.70;;;;;;5094948;28;20028;-75
2021/05/15 06:15:40;;;;;;;84.25;39.95;;;12.30;88.60;;;;;;5093012;28;20032;-75
2021/05/15 06:18:06;;;;;;;78.28;38.80;;;12.30;88.80;;;;;;5087606;28;20575;-75
2021/05/15 06:20:31;;;;;;;78.75;39.17;;;12.30;88.90;;;;;;5084024;28;20110;-75
2021/05/15 06:22:57;;;;;;;77.72;38.42;;;12.30;89.00;;;;;;5091334;28;20024;-75
2021/05/15 06:25:23;;;;;;;68.28;34.47;;;12.30;89.00;;;;;;5093798;28;20400;-75
2021/05/15 06:27:48;;;;;;;73.38;37.00;;;12.30;89.10;;;;;;5078044;28;20024;-75
2021/05/15 06:30:15;;;;;;;66.15;34.00;;;12.40;89.20;;;;;;5074565;28;20059;-75
2021/05/15 06:32:41;;;;;;;68.35;36.78;;;12.40;89.30;;;;;;5085403;28;20034;-75
2021/05/15 06:35:07;;;;;;;65.05;33.90;;;12.40;89.20;;;;;;5084918;28;20514;-75
2021/05/15 06:37:33;;;;;;;67.47;35.20;;;12.50;89.20;;;;;;5083991;28;20033;-75
2021/05/15 06:39:58;;;;;;;72.00;36.67;;;12.50;89.00;;;;;;5080915;28;20024;-75
2021/05/15 06:42:24;;;;;;;66.35;36.60;;;12.50;89.10;;;;;;5056158;28;20086;-75
2021/05/15 06:44:49;;;;;;;72.22;38.03;;;12.50;89.00;;;;;;5093543;28;20029;-75
2021/05/15 06:47:17;;;;;;;65.88;35.25;;;12.50;89.00;;;;;;5068026;28;20507;-76
2021/05/15 06:49:43;;;;;;;70.10;35.72;;;12.50;88.90;;;;;;5088320;28;20408;-75
2021/05/15 06:52:09;;;;;;;56.78;32.08;;;12.50;89.10;;;;;;5059205;28;20045;-75
2021/05/15 06:54:35;;;;;;;54.80;30.10;;;12.50;89.20;;;;;;5073062;28;20358;-75
2021/05/15 06:57:00;;;;;;;49.67;29.77;;;12.50;88.90;;;;;;5068453;28;20032;-75
2021/05/15 06:59:26;;;;;;;46.97;27.30;;;12.50;88.70;;;;;;5073937;28;20111;-75
2021/05/15 07:01:52;;;;;;;49.75;26.85;;;12.50;88.70;;;;;;5050487;28;20021;-75
2021/05/15 07:04:17;;;;;;;44.88;24.95;;;12.50;88.70;;;;;;5054325;28;20143;-75
2021/05/15 07:06:44;;;;;;;40.15;22.35;;;12.50;88.60;;;;;;5064160;28;20036;-75
2021/05/15 07:09:10;;;;;;;36.22;21.65;;;12.40;88.50;;;;;;5061741;28;20124;-75
2021/05/15 07:11:35;;;;;;;33.47;20.40;;;12.40;88.50;;;;;;5059429;28;20491;-75
2021/05/15 07:14:01;;;;;;;37.00;20.80;;;12.40;88.40;;;;;;5073681;28;20066;-75
2021/05/15 07:16:27;;;;;;;33.40;19.65;;;12.40;88.40;;;;;;5072811;28;20035;-75
2021/05/15 07:18:52;;;;;;;28.10;18.27;;;12.40;88.40;;;;;;5068304;28;20036;-75
2021/05/15 07:21:18;;;;;;;31.70;19.05;;;12.40;88.30;;;;;;5068045;28;20029;-74
2021/05/15 07:23:44;;;;;;;32.08;18.17;;;12.40;88.30;;;;;;5062407;28;20021;-75
2021/05/15 07:26:11;;;;;;;29.60;18.05;;;12.40;88.40;;;;;;5073931;28;20375;-75
2021/05/15 07:28:38;;;;;;;25.67;17.30;;;12.40;88.20;;;;;;5058188;28;20032;-75
2021/05/15 07:31:04;;;;;;;27.27;16.98;;;12.40;88.40;;;;;;5063486;28;20040;-75
2021/05/15 07:33:29;;;;;;;27.42;17.15;;;12.50;88.20;;;;;;5059293;28;20032;-75
2021/05/15 07:35:55;;;;;;;23.65;15.75;;;12.60;88.10;;;;;;5062572;28;20078;-76
2021/05/15 07:38:22;;;;;;;22.92;15.30;;;12.60;88.10;;;;;;5060773;28;20108;-76
2021/05/15 07:40:49;;;;;;;22.42;14.63;;;12.70;88.10;;;;;;5064218;28;20352;-75
2021/05/15 07:43:22;;;;;;;23.33;14.38;;;12.80;88.10;;;;;;5059695;28;20025;-75
2021/05/15 07:45:48;;;;;;;25.30;15.82;;;12.80;87.80;;;;;;5060346;28;20413;-75
2021/05/15 07:48:13;;;;;;;21.20;14.02;;;12.90;87.40;;;;;;5063687;28;20128;-75
2021/05/15 07:50:39;;;;;;;25.35;15.50;;;13.00;87.00;;;;;;5063643;28;20493;-76
2021/05/15 07:53:04;;;;;;;22.05;14.35;;;13.20;87.00;;;;;;5074571;28;20036;-76
2021/05/15 07:55:30;;;;;;;20.65;13.10;;;13.40;86.90;;;;;;5084826;28;20043;-75
2021/05/15 07:57:55;;;;;;;18.48;12.40;;;13.60;86.10;;;;;;5060639;28;20533;-75
2021/05/15 08:00:21;;;;;;;19.08;12.93;;;13.70;84.80;;;;;;5082189;28;20024;-75
2021/05/15 08:02:48;;;;;;;20.83;13.15;;;13.70;85.20;;;;;;5085063;28;20406;-75
2021/05/15 08:05:13;;;;;;;19.80;13.38;;;13.80;85.70;;;;;;5080578;28;20119;-75
2021/05/15 08:07:39;;;;;;;19.88;13.00;;;13.70;85.20;;;;;;5053660;28;20139;-75
2021/05/15 08:10:07;;;;;;;17.60;11.90;;;13.60;85.30;;;;;;5090297;28;20111;-81
2021/05/15 08:12:33;;;;;;;22.98;13.50;;;13.50;85.70;;;;;;5089446;28;20031;-80
2021/05/15 08:14:59;;;;;;;22.60;15.27;;;13.50;85.80;;;;;;5092958;28;20020;-80
2021/05/15 08:17:25;;;;;;;23.25;15.35;;;13.50;86.10;;;;;;5093036;28;20154;-80
2021/05/15 08:19:50;;;;;;;27.50;17.88;;;13.60;86.20;;;;;;5092946;28;20043;-78
2021/05/15 08:22:16;;;;;;;29.20;17.90;;;13.60;85.90;;;;;;5092935;28;20028;-81
2021/05/15 08:24:41;;;;;;;27.58;18.95;;;13.70;85.70;;;;;;5089571;28;20069;-80
2021/05/15 08:27:07;;;;;;;28.08;18.50;;;13.90;84.80;;;;;;5074859;28;20032;-80
2021/05/15 08:29:33;;;;;;;26.55;17.67;;;14.30;84.00;;;;;;5061752;28;20025;-83
2021/05/15 08:32:00;;;;;;;26.17;17.73;;;14.60;83.40;;;;;;5055387;28;20029;-83
2021/05/15 08:34:25;;;;;;;26.90;18.88;;;15.00;81.90;;;;;;5057843;28;20120;-82
2021/05/15 08:36:51;;;;;;;25.25;17.77;;;15.10;80.60;;;;;;5093314;28;20111;-83
2021/05/15 08:39:16;;;;;;;25.67;18.20;;;15.20;79.60;;;;;;5091605;28;20028;-81
2021/05/15 08:41:42;;;;;;;28.67;19.50;;;15.10;79.20;;;;;;5073175;28;20453;-82
2021/05/15 08:44:13;;;;;;;28.40;19.63;;;15.10;80.00;;;;;;5055171;28;20074;-81
2021/05/15 08:46:44;;;;;;;26.42;19.17;;;15.20;79.60;;;;;;5055000;28;20056;-82
2021/05/15 08:49:11;;;;;;;23.55;18.42;;;15.30;79.30;;;;;;5090586;28;20081;-81
2021/05/15 08:51:37;;;;;;;25.13;18.38;;;15.30;79.40;;;;;;5093291;28;20024;-81
2021/05/15 08:54:03;;;;;;;24.92;18.63;;;15.30;78.10;;;;;;5092912;28;20051;-83
2021/05/15 08:56:29;;;;;;;25.65;19.35;;;15.00;77.70;;;;;;5093126;28;20032;-82
2021/05/15 08:58:56;;;;;;;24.65;17.88;;;14.90;78.90;;;;;;5093065;28;20024;-86
2021/05/15 09:01:23;;;;;;;25.92;16.85;;;14.80;79.60;;;;;;5075862;28;20029;-77
2021/05/15 09:03:48;;;;;;;23.98;16.92;;;14.90;79.90;;;;;;5078730;28;20052;-79
2021/05/15 09:06:14;;;;;;;22.10;17.08;;;15.20;78.50;;;;;;5073334;28;20071;-80
2021/05/15 09:08:47;;;;;;;17.65;15.23;;;15.50;78.20;;;;;;5076766;28;20484;-81
2021/05/15 09:11:13;;;;;;;18.98;15.15;;;15.80;76.60;;;;;;5083346;28;20024;-81
2021/05/15 09:13:48;;;;;;;18.20;15.38;;;15.80;76.40;;;;;;5096598;28;20032;-84
2021/05/15 09:16:13;;;;;;;19.08;15.50;;;15.90;76.10;;;;;;5078086;28;20028;-84
2021/05/15 09:18:40;;;;;;;17.25;13.30;;;16.20;75.80;;;;;;5078482;28;20047;-86
2021/05/15 09:21:15;;;;;;;15.20;12.15;;;16.70;74.00;;;;;;5078675;28;20034;-83
2021/05/15 09:23:44;;;;;;;16.15;12.57;;;17.20;72.80;;;;;;5096506;28;20066;-83
2021/05/15 09:26:16;;;;;;;16.38;10.00;;;17.60;71.10;;;;;;5096665;28;20047;-82
2021/05/15 09:28:49;;;;;;;11.55;9.88;;;17.80;70.10;;;;;;5096430;28;20512;-82
2021/05/15 09:31:24;;;;;;;15.70;11.25;;;17.80;69.10;;;;;;5096243;28;20032;-83
2021/05/15 09:34:05;;;;;;;12.45;9.77;;;17.80;68.90;;;;;;5096546;28;20077;-82
2021/05/15 09:36:33;;;;;;;10.93;8.95;;;17.60;68.70;;;;;;5096264;28;20028;-83
2021/05/15 09:39:12;;;;;;;13.00;9.95;;;17.50;69.50;;;;;;5096663;28;20024;-82
2021/05/15 09:41:39;;;;;;;11.25;9.25;;;17.50;69.30;;;;;;5096313;28;20035;-82
2021/05/15 09:44:07;;;;;;;9.15;7.68;;;17.60;68.70;;;;;;5096191;28;20028;-82
2021/05/15 09:46:35;;;;;;;11.63;9.03;;;17.70;68.30;;;;;;5074376;28;20100;-82
2021/05/15 09:49:01;;;;;;;10.63;8.82;;;17.80;67.50;;;;;;5075906;28;20546;-82
2021/05/15 09:51:28;;;;;;;12.02;8.52;;;17.70;66.90;;;;;;5075892;28;20476;-82
2021/05/15 09:53:53;;;;;;;11.07;8.73;;;17.40;65.90;;;;;;5057714;28;20057;-82
2021/05/15 09:56:30;;;;;;;8.00;7.20;;;17.10;67.00;;;;;;5075785;28;20443;-81
2021/05/15 09:58:56;;;;;;;6.45;3.42;;;16.70;67.70;;;;;;5057889;28;20473;-82
2021/05/15 10:01:23;;;;;;;4.28;2.70;;;16.30;68.70;;;;;;5075761;28;20535;-83
2021/05/15 10:03:58;;;;;;;6.70;2.28;;;15.80;70.60;;;;;;5075583;28;20112;-83
2021/05/15 10:06:24;;;;;;;6.20;2.08;;;15.30;72.70;;;;;;5057675;28;20034;-81
2021/05/15 10:08:50;;;;;;;3.97;1.83;;;14.90;74.40;;;;;;5095856;28;20111;-82
2021/05/15 10:11:16;;;;;;;3.40;1.85;;;14.60;76.10;;;;;;5095638;28;20024;-82
2021/05/15 10:13:42;;;;;;;4.32;2.20;;;14.30;77.50;;;;;;5095146;28;20380;-89
2021/05/15 10:16:08;;;;;;;2.55;2.22;;;14.20;78.60;;;;;;5061010;28;20024;-83
2021/05/15 10:18:34;;;;;;;5.03;2.95;;;14.10;79.10;;;;;;5095450;28;20051;-83
2021/05/15 10:21:02;;;;;;;7.68;2.70;;;14.10;79.80;;;;;;5077323;28;20111;-80
2021/05/15 10:23:36;;;;;;;2.13;1.90;;;14.20;80.60;;;;;;5095536;28;20028;-81
2021/05/15 10:26:16;;;;;;;3.22;2.13;;;14.40;80.90;;;;;;5075224;28;20024;-80
2021/05/15 10:28:44;;;;;;;2.85;2.03;;;14.70;81.20;;;;;;5087132;28;20028;-80
2021/05/15 10:31:15;;;;;;;3.72;2.80;;;15.00;79.90;;;;;;5091128;28;20023;-81
2021/05/15 10:33:43;;;;;;;3.70;2.90;;;15.30;77.80;;;;;;5094888;28;20391;-78
2021/05/15 10:36:19;;;;;;;5.15;3.90;;;15.50;77.50;;;;;;5107529;28;20016;-78
2021/05/15 10:38:46;;;;;;;4.72;3.55;;;15.60;78.70;;;;;;5078807;28;20024;-78
2021/05/15 10:41:15;;;;;;;4.93;4.15;;;15.70;78.20;;;;;;5095162;28;20046;-78
2021/05/15 10:43:43;;;;;;;4.90;4.20;;;15.80;76.90;;;;;;5095021;28;20069;-78
2021/05/15 10:46:31;;;;;;;8.02;4.43;;;15.80;76.40;;;;;;5094330;28;20039;-81
2021/05/15 10:49:08;;;;;;;5.90;4.10;;;15.90;75.50;;;;;;5077037;28;20036;-81
2021/05/15 10:51:47;;;;;;;5.25;4.60;;;16.10;76.70;;;;;;5094362;28;20373;-81
2021/05/15 10:54:29;;;;;;;6.35;4.70;;;16.40;75.20;;;;;;5095398;28;20122;-81
2021/05/15 10:57:05;;;;;;;5.80;4.47;;;16.40;73.70;;;;;;5094470;28;20038;-81
2021/05/15 10:59:31;;;;;;;7.07;5.03;;;16.50;73.80;;;;;;5094625;28;20519;-78
2021/05/15 11:01:58;;;;;;;13.00;5.63;;;16.50;73.50;;;;;;5076732;28;20063;-80
2021/05/15 11:04:32;;;;;;;5.90;5.15;;;16.40;73.90;;;;;;5094774;28;20393;-79
2021/05/15 11:07:11;;;;;;;7.25;5.20;;;16.30;73.60;;;;;;5094413;28;20047;-79
2021/05/15 11:09:50;;;;;;;14.07;4.57;;;16.30;74.70;;;;;;5094730;28;20044;-78
2021/05/15 11:12:16;;;;;;;8.63;5.80;;;16.20;75.00;;;;;;5094197;28;20032;-79
2021/05/15 11:14:45;;;;;;;7.22;4.55;;;16.00;75.90;;;;;;5096902;28;20032;-78
2021/05/15 11:17:21;;;;;;;5.43;4.13;;;15.90;76.40;;;;;;5114631;28;20480;-78
2021/05/15 11:19:51;;;;;;;5.63;3.90;;;15.90;77.00;;;;;;5114605;28;20106;-78
2021/05/15 11:22:18;;;;;;;8.10;4.72;;;15.80;77.30;;;;;;5114277;28;20499;-78
2021/05/15 11:24:51;;;;;;;8.25;3.45;;;15.90;77.20;;;;;;5113798;28;20480;-78
2021/05/15 11:27:19;;;;;;;5.85;3.67;;;16.00;75.20;;;;;;5097112;28;20027;-78
2021/05/15 11:29:45;;;;;;;9.10;3.50;;;16.10;75.80;;;;;;5075943;28;20042;-78
2021/05/15 11:32:13;;;;;;;4.60;3.13;;;16.40;75.10;;;;;;5093949;28;20028;-78
2021/05/15 11:34:40;;;;;;;4.90;2.50;;;16.50;73.90;;;;;;5094201;28;20024;-78
2021/05/15 11:37:09;;;;;;;7.25;2.97;;;16.60;71.90;;;;;;5093897;28;20032;-78
2021/05/15 11:39:35;;;;;;;4.20;2.00;;;16.70;70.10;;;;;;5075363;28;20073;-78
2021/05/15 11:42:05;;;;;;;3.85;1.95;;;17.00;70.00;;;;;;5093188;28;20066;-78
2021/05/15 11:44:31;;;;;;;4.78;2.22;;;17.40;68.70;;;;;;5067516;28;20028;-74
2021/05/15 11:46:57;;;;;;;4.22;2.25;;;17.80;65.80;;;;;;5047121;28;20138;-74
2021/05/15 11:49:24;;;;;;;6.00;2.53;;;18.10;65.90;;;;;;5093191;28;20043;-74
2021/05/15 11:52:00;;;;;;;5.97;2.17;;;18.50;64.40;;;;;;5092918;28;20040;-74
2021/05/15 11:54:26;;;;;;;7.35;2.05;;;18.60;61.00;;;;;;5092655;28;20106;-75
2021/05/15 11:56:52;;;;;;;4.65;2.20;;;18.40;62.80;;;;;;5089457;28;20036;-74
2021/05/15 11:59:20;;;;;;;3.00;1.85;;;18.20;63.80;;;;;;5071971;28;20031;-75
2021/05/15 12:01:46;;;;;;;5.30;2.33;;;18.10;62.60;;;;;;5090678;28;20016;-74
2021/05/15 12:04:18;;;;;;;3.38;2.08;;;18.10;62.40;;;;;;5093101;28;20028;-74
2021/05/15 12:06:45;;;;;;;4.18;2.30;;;18.20;62.90;;;;;;5075044;28;20366;-74
2021/05/15 12:09:15;;;;;;;3.47;2.13;;;18.30;60.80;;;;;;5075127;28;20028;-75
2021/05/15 12:11:41;;;;;;;4.15;1.88;;;18.40;60.90;;;;;;5069863;28;20048;-74
2021/05/15 12:14:07;;;;;;;4.18;2.70;;;18.40;61.20;;;;;;5038048;28;20040;-74
2021/05/15 12:16:35;;;;;;;3.50;2.08;;;18.30;60.70;;;;;;5054847;28;20033;-74
2021/05/15 12:19:02;;;;;;;3.60;2.15;;;18.30;60.50;;;;;;5072791;28;20012;-74
2021/05/15 12:21:28;;;;;;;5.00;2.53;;;18.20;60.50;;;;;;5083159;28;20629;-74
2021/05/15 12:24:03;;;;;;;6.50;2.40;;;18.10;62.20;;;;;;5092767;28;20054;-74
2021/05/15 12:26:28;;;;;;;4.15;2.00;;;17.90;61.20;;;;;;5074749;28;20024;-74
2021/05/15 12:28:54;;;;;;;7.80;2.67;;;17.60;61.50;;;;;;5092798;28;20036;-74
2021/05/15 12:31:24;;;;;;;5.20;2.10;;;17.40;62.80;;;;;;5091975;28;20028;-74
2021/05/15 12:33:51;;;;;;;7.13;2.22;;;17.20;64.70;;;;;;5072573;28;20196;-73
2021/05/15 12:36:16;;;;;;;7.38;2.22;;;16.90;66.70;;;;;;5055295;28;20028;-74
2021/05/15 12:38:47;;;;;;;6.30;2.38;;;16.50;68.60;;;;;;5076520;28;20025;-73